sensor_id;sensor_type;location;lat;lon;timestamp;pressure;altitude;pressure_sealevel;temperature;humidity
10366;BME280;5229;41.820;23.490;2022-12-04T00:01:02;90768.31;;;8.62;63.40
10366;BME280;5229;41.820;23.490;2022-12-04T00:03:29;90763.16;;;8.62;63.80
10366;BME280;5229;41.820;23.490;2022-12-04T00:06:02;90765.19;;;8.65;64.18
10366;BME280;5229;41.820;23.490;2022-12-04T00:08:29;90766.19;;;8.69;64.11
10366;BME280;5229;41.820;23.490;2022-12-04T00:10:56;90764.13;;;8.66;63.69
10366;BME280;5229;41.820;23.490;2022-12-04T00:13:23;90766.47;;;8.62;63.71
10366;BME280;5229;41.820;23.490;2022-12-04T00:15:51;90772.97;;;8.60;63.92
10366;BME280;5229;41.820;23.490;2022-12-04T00:18:18;90778.16;;;8.60;64.08
10366;BME280;5229;41.820;23.490;2022-12-04T00:20:45;90770.19;;;8.56;63.93
10366;BME280;5229;41.820;23.490;2022-12-04T00:23:11;90771.97;;;8.56;64.04
10366;BME280;5229;41.820;23.490;2022-12-04T00:25:38;90771.72;;;8.57;63.97
10366;BME280;5229;41.820;23.490;2022-12-04T00:28:05;90772.50;;;8.58;63.90
10366;BME280;5229;41.820;23.490;2022-12-04T00:30:32;90768.59;;;8.60;64.31
10366;BME280;5229;41.820;23.490;2022-12-04T00:33:00;90763.16;;;8.62;63.59
10366;BME280;5229;41.820;23.490;2022-12-04T00:35:27;90767.81;;;8.60;64.05
10366;BME280;5229;41.820;23.490;2022-12-04T00:37:54;90778.16;;;8.60;64.21
10366;BME280;5229;41.820;23.490;2022-12-04T00:40:21;90780.47;;;8.61;64.05
10366;BME280;5229;41.820;23.490;2022-12-04T00:42:47;90780.47;;;8.61;63.93
10366;BME280;5229;41.820;23.490;2022-12-04T00:45:14;90767.81;;;8.60;64.76
10366;BME280;5229;41.820;23.490;2022-12-04T00:47:41;90773.22;;;8.63;63.82
10366;BME280;5229;41.820;23.490;2022-12-04T00:50:10;90769.59;;;8.64;64.16
10366;BME280;5229;41.820;23.490;2022-12-04T00:52:37;90773.22;;;8.63;63.94
10366;BME280;5229;41.820;23.490;2022-12-04T00:55:05;90776.06;;;8.62;63.66
10366;BME280;5229;41.820;23.490;2022-12-04T00:57:32;90773.50;;;8.62;63.75
10366;BME280;5229;41.820;23.490;2022-12-04T00:59:59;90773.22;;;8.63;63.68
10366;BME280;5229;41.820;23.490;2022-12-04T01:02:26;90769.34;;;8.61;63.79
10366;BME280;5229;41.820;23.490;2022-12-04T01:04:52;90762.63;;;8.60;63.62
10366;BME280;5229;41.820;23.490;2022-12-04T01:07:21;90766.75;;;8.61;63.83
10366;BME280;5229;41.820;23.490;2022-12-04T01:09:48;90769.84;;;8.63;63.71
10366;BME280;5229;41.820;23.490;2022-12-04T01:12:15;90763.69;;;8.59;63.66
10366;BME280;5229;41.820;23.490;2022-12-04T01:14:42;90759.56;;;8.58;64.01
10366;BME280;5229;41.820;23.490;2022-12-04T01:17:08;90767.31;;;8.58;63.62
10366;BME280;5229;41.820;23.490;2022-12-04T01:19:35;90765.50;;;8.58;64.04
10366;BME280;5229;41.820;23.490;2022-12-04T01:22:02;90767.81;;;8.60;63.63
10366;BME280;5229;41.820;23.490;2022-12-04T01:24:30;90766.75;;;8.61;64.11
10366;BME280;5229;41.820;23.490;2022-12-04T01:26:57;90756.94;;;8.63;64.18
10366;BME280;5229;41.820;23.490;2022-12-04T01:29:24;90766.47;;;8.62;64.07
10366;BME280;5229;41.820;23.490;2022-12-04T01:31:51;90760.56;;;8.62;63.64
10366;BME280;5229;41.820;23.490;2022-12-04T01:34:17;90758.47;;;8.64;64.06
10366;BME280;5229;41.820;23.490;2022-12-04T01:36:44;90755.06;;;8.68;63.55
10366;BME280;5229;41.820;23.490;2022-12-04T01:39:12;90753.75;;;8.71;64.24
10366;BME280;5229;41.820;23.490;2022-12-04T01:41:41;90759.41;;;8.73;63.73
10366;BME280;5229;41.820;23.490;2022-12-04T01:44:10;90753.97;;;8.74;63.47
10366;BME280;5229;41.820;23.490;2022-12-04T01:46:38;90754.72;;;8.75;63.86
10366;BME280;5229;41.820;23.490;2022-12-04T01:49:06;90759.16;;;8.74;63.55
10366;BME280;5229;41.820;23.490;2022-12-04T01:51:36;90756.06;;;8.72;64.36
10366;BME280;5229;41.820;23.490;2022-12-04T01:54:08;90756.56;;;8.74;64.04
10366;BME280;5229;41.820;23.490;2022-12-04T01:56:40;90746.16;;;8.79;63.98
10366;BME280;5229;41.820;23.490;2022-12-04T01:59:12;90750.00;;;8.82;63.26
10366;BME280;5229;41.820;23.490;2022-12-04T02:01:45;90746.66;;;8.81;63.42
10366;BME280;5229;41.820;23.490;2022-12-04T02:04:15;90750.34;;;8.75;63.39
10366;BME280;5229;41.820;23.490;2022-12-04T02:06:42;90748.09;;;8.69;nan
10366;BME280;5229;41.820;23.490;2022-12-04T02:09:09;90748.91;;;8.64;63.61
10366;BME280;5229;41.820;23.490;2022-12-04T02:11:43;90752.03;;;8.61;64.28
10366;BME280;5229;41.820;23.490;2022-12-04T02:14:20;90748.66;;;8.61;64.06
10366;BME280;5229;41.820;23.490;2022-12-04T02:16:56;90748.63;;;8.66;64.20
10366;BME280;5229;41.820;23.490;2022-12-04T02:22:36;90744.00;;;8.63;63.74
10366;BME280;5229;41.820;23.490;2022-12-04T02:25:17;90745.09;;;8.57;64.04
10366;BME280;5229;41.820;23.490;2022-12-04T02:27:58;90740.97;;;8.56;64.36
10366;BME280;5229;41.820;23.490;2022-12-04T02:30:28;90743.56;;;8.56;63.96
10366;BME280;5229;41.820;23.490;2022-12-04T02:33:01;90739.44;;;8.55;64.61
10366;BME280;5229;41.820;23.490;2022-12-04T02:35:34;90737.34;;;8.57;64.65
10366;BME280;5229;41.820;23.490;2022-12-04T02:38:06;90740.16;;;8.60;63.86
10366;BME280;5229;41.820;23.490;2022-12-04T02:40:40;90740.44;;;8.59;64.07
10366;BME280;5229;41.820;23.490;2022-12-04T02:43:13;90750.03;;;8.53;63.97
10366;BME280;5229;41.820;23.490;2022-12-04T02:45:45;90742.03;;;8.50;64.61
10366;BME280;5229;41.820;23.490;2022-12-04T02:48:16;90741.56;;;8.48;64.84
10366;BME280;5229;41.820;23.490;2022-12-04T02:50:46;90743.38;;;8.47;64.48
10366;BME280;5229;41.820;23.490;2022-12-04T02:53:17;90739.25;;;8.46;64.57
10366;BME280;5229;41.820;23.490;2022-12-04T02:55:48;90746.00;;;8.42;64.39
10366;BME280;5229;41.820;23.490;2022-12-04T02:58:22;90747.34;;;8.35;64.49
10366;BME280;5229;41.820;23.490;2022-12-04T03:00:52;90742.72;;;8.32;65.18
10366;BME280;5229;41.820;23.490;2022-12-04T03:03:22;90744.25;;;8.33;64.64
10366;BME280;5229;41.820;23.490;2022-12-04T03:05:54;90752.53;;;8.35;65.17
10366;BME280;5229;41.820;23.490;2022-12-04T03:08:31;90754.56;;;8.38;64.65
10366;BME280;5229;41.820;23.490;2022-12-04T03:11:00;90745.28;;;8.37;65.49
10366;BME280;5229;41.820;23.490;2022-12-04T03:13:32;90760.78;;;8.37;65.35
10366;BME280;5229;41.820;23.490;2022-12-04T03:16:06;90757.16;;;8.38;64.53
10366;BME280;5229;41.820;23.490;2022-12-04T03:18:36;90752.47;;;8.40;65.24
10366;BME280;5229;41.820;23.490;2022-12-04T03:21:07;90759.19;;;8.41;64.80
10366;BME280;5229;41.820;23.490;2022-12-04T03:23:38;90757.63;;;8.40;64.83
10366;BME280;5229;41.820;23.490;2022-12-04T03:26:11;90758.75;;;8.34;64.77
10366;BME280;5229;41.820;23.490;2022-12-04T03:28:46;90758.75;;;8.29;64.82
10366;BME280;5229;41.820;23.490;2022-12-04T03:31:22;90768.81;;;8.30;65.39
10366;BME280;5229;41.820;23.490;2022-12-04T03:33:54;90757.19;;;8.33;65.08
10366;BME280;5229;41.820;23.490;2022-12-04T03:36:25;90759.22;;;8.36;65.25
10366;BME280;5229;41.820;23.490;2022-12-04T03:38:56;90755.06;;;8.40;65.41
10366;BME280;5229;41.820;23.490;2022-12-04T03:41:27;90756.34;;;8.42;64.83
10366;BME280;5229;41.820;23.490;2022-12-04T03:44:02;90755.03;;;8.45;65.23
10366;BME280;5229;41.820;23.490;2022-12-04T03:46:35;90757.34;;;8.46;64.91
10366;BME280;5229;41.820;23.490;2022-12-04T03:49:10;90748.53;;;8.47;64.33
10366;BME280;5229;41.820;23.490;2022-12-04T03:51:40;90741.84;;;8.46;64.66
10366;BME280;5229;41.820;23.490;2022-12-04T03:54:13;90747.00;;;8.46;65.05
10366;BME280;5229;41.820;23.490;2022-12-04T03:56:44;90752.38;;;8.50;65.04
10366;BME280;5229;41.820;23.490;2022-12-04T03:59:18;90749.81;;;8.50;65.07
10366;BME280;5229;41.820;23.490;2022-12-04T04:01:49;90740.50;;;8.49;64.61
10366;BME280;5229;41.820;23.490;2022-12-04T04:04:24;90744.69;;;8.45;64.40
10366;BME280;5229;41.820;23.490;2022-12-04T04:06:56;90744.19;;;8.43;64.58
10366;BME280;5229;41.820;23.490;2022-12-04T04:09:27;90756.56;;;8.46;64.77
10366;BME280;5229;41.820;23.490;2022-12-04T04:12:01;90752.91;;;8.52;65.10
10366;BME280;5229;41.820;23.490;2022-12-04T04:14:33;90750.53;;;8.55;65.08
10366;BME280;5229;41.820;23.490;2022-12-04T04:17:23;90750.75;;;8.59;65.09
10366;BME280;5229;41.820;23.490;2022-12-04T04:20:13;90751.25;;;8.61;64.50
10366;BME280;5229;41.820;23.490;2022-12-04T04:23:00;90751.75;;;8.63;65.04
10366;BME280;5229;41.820;23.490;2022-12-04T04:25:46;90747.09;;;8.65;65.06
10366;BME280;5229;41.820;23.490;2022-12-04T04:28:29;90743.72;;;8.64;64.81
10366;BME280;5229;41.820;23.490;2022-12-04T04:31:04;90751.44;;;8.69;64.45
10366;BME280;5229;41.820;23.490;2022-12-04T04:33:36;90758.38;;;8.74;64.54
10366;BME280;5229;41.820;23.490;2022-12-04T04:36:11;90757.31;;;8.75;64.27
10366;BME280;5229;41.820;23.490;2022-12-04T04:38:46;90762.00;;;8.73;64.98
10366;BME280;5229;41.820;23.490;2022-12-04T04:41:21;90756.88;;;8.68;64.48
10366;BME280;5229;41.820;23.490;2022-12-04T04:43:56;90760.28;;;8.63;64.33
10366;BME280;5229;41.820;23.490;2022-12-04T04:46:30;90758.53;;;8.59;64.72
10366;BME280;5229;41.820;23.490;2022-12-04T04:49:00;90770.66;;;8.58;64.40
10366;BME280;5229;41.820;23.490;2022-12-04T04:51:29;90775.34;;;8.56;64.48
10366;BME280;5229;41.820;23.490;2022-12-04T04:54:00;90771.47;;;8.54;64.28
10366;BME280;5229;41.820;23.490;2022-12-04T04:56:29;90778.22;;;8.50;64.98
10366;BME280;5229;41.820;23.490;2022-12-04T04:58:57;90777.47;;;8.49;64.65
10366;BME280;5229;41.820;23.490;2022-12-04T05:01:27;90775.63;;;8.50;64.61
10366;BME280;5229;41.820;23.490;2022-12-04T05:03:54;90774.09;;;8.49;64.50
10366;BME280;5229;41.820;23.490;2022-12-04T05:06:20;90775.16;;;8.48;64.71
10366;BME280;5229;41.820;23.490;2022-12-04T05:08:47;90780.31;;;8.48;64.71
10366;BME280;5229;41.820;23.490;2022-12-04T05:11:15;90786.53;;;8.47;64.29
10366;BME280;5229;41.820;23.490;2022-12-04T05:13:42;90788.88;;;8.43;65.00
10366;BME280;5229;41.820;23.490;2022-12-04T05:16:11;90790.47;;;8.39;64.38
10366;BME280;5229;41.820;23.490;2022-12-04T05:18:40;90783.00;;;8.38;64.59
10366;BME280;5229;41.820;23.490;2022-12-04T05:21:29;90777.31;;;8.36;64.80
10366;BME280;5229;41.820;23.490;2022-12-04T05:23:55;90788.16;;;8.38;65.02
10366;BME280;5229;41.820;23.490;2022-12-04T05:26:22;90778.88;;;8.37;64.72
10366;BME280;5229;41.820;23.490;2022-12-04T05:28:49;90784.03;;;8.37;64.49
10366;BME280;5229;41.820;23.490;2022-12-04T05:31:16;90788.44;;;8.36;64.88
10366;BME280;5229;41.820;23.490;2022-12-04T05:33:44;90789.75;;;8.34;65.08
10366;BME280;5229;41.820;23.490;2022-12-04T05:36:11;90790.00;;;8.32;64.31
10366;BME280;5229;41.820;23.490;2022-12-04T05:38:38;90797.75;;;8.32;65.23
10366;BME280;5229;41.820;23.490;2022-12-04T05:41:06;90785.91;;;8.31;64.92
10366;BME280;5229;41.820;23.490;2022-12-04T05:43:33;90790.28;;;8.31;65.01
10366;BME280;5229;41.820;23.490;2022-12-04T05:46:00;90786.69;;;8.27;65.06
10366;BME280;5229;41.820;23.490;2022-12-04T05:48:27;90794.19;;;8.23;65.04
10366;BME280;5229;41.820;23.490;2022-12-04T05:50:55;90798.63;;;8.23;64.91
10366;BME280;5229;41.820;23.490;2022-12-04T05:53:22;90800.66;;;8.21;65.13
10366;BME280;5229;41.820;23.490;2022-12-04T05:55:55;90794.22;;;8.18;65.23
10366;BME280;5229;41.820;23.490;2022-12-04T05:58:23;90797.06;;;8.22;65.54
10366;BME280;5229;41.820;23.490;2022-12-04T06:00:50;90799.38;;;8.23;65.33
10366;BME280;5229;41.820;23.490;2022-12-04T06:03:17;90797.03;;;8.27;65.34
10366;BME280;5229;41.820;23.490;2022-12-04T06:05:44;90797.50;;;8.34;65.36
10366;BME280;5229;41.820;23.490;2022-12-04T06:08:12;90793.81;;;8.40;64.89
10366;BME280;5229;41.820;23.490;2022-12-04T06:10:39;90799.22;;;8.43;64.68
10366;BME280;5229;41.820;23.490;2022-12-04T06:13:06;90798.16;;;8.49;64.84
10366;BME280;5229;41.820;23.490;2022-12-04T06:15:36;90800.41;;;8.56;64.26
10366;BME280;5229;41.820;23.490;2022-12-04T06:18:03;90792.88;;;8.59;65.02
10366;BME280;5229;41.820;23.490;2022-12-04T06:20:31;90804.22;;;8.63;64.25
10366;BME280;5229;41.820;23.490;2022-12-04T06:22:58;90800.81;;;8.68;64.77
10366;BME280;5229;41.820;23.490;2022-12-04T06:25:26;90806.44;;;8.75;64.32
10366;BME280;5229;41.820;23.490;2022-12-04T06:27:53;90802.28;;;8.79;64.34
10366;BME280;5229;41.820;23.490;2022-12-04T06:30:20;90807.88;;;8.86;64.06
10366;BME280;5229;41.820;23.490;2022-12-04T06:32:46;90804.50;;;8.90;63.80
10366;BME280;5229;41.820;23.490;2022-12-04T06:35:14;90803.69;;;8.95;63.95
10366;BME280;5229;41.820;23.490;2022-12-04T06:37:40;90810.34;;;9.01;63.55
10366;BME280;5229;41.820;23.490;2022-12-04T06:40:08;90806.66;;;9.07;64.34
10366;BME280;5229;41.820;23.490;2022-12-04T06:42:36;90808.66;;;9.15;64.05
10366;BME280;5229;41.820;23.490;2022-12-04T06:45:04;90807.25;;;9.23;63.70
10366;BME280;5229;41.820;23.490;2022-12-04T06:47:33;90818.84;;;9.30;63.61
10366;BME280;5229;41.820;23.490;2022-12-04T06:50:00;90818.50;;;9.37;63.26
10366;BME280;5229;41.820;23.490;2022-12-04T06:52:26;90814.53;;;9.44;63.46
10366;BME280;5229;41.820;23.490;2022-12-04T06:54:53;90813.94;;;9.52;63.33
10366;BME280;5229;41.820;23.490;2022-12-04T06:57:20;90811.78;;;9.59;62.94
10366;BME280;5229;41.820;23.490;2022-12-04T06:59:48;90812.22;;;9.66;63.17
10366;BME280;5229;41.820;23.490;2022-12-04T07:02:15;90816.00;;;9.74;62.90
10366;BME280;5229;41.820;23.490;2022-12-04T07:04:42;90810.47;;;9.80;62.68
10366;BME280;5229;41.820;23.490;2022-12-04T07:07:09;90806.97;;;9.90;62.42
10366;BME280;5229;41.820;23.490;2022-12-04T07:09:36;90807.13;;;9.98;62.51
10366;BME280;5229;41.820;23.490;2022-12-04T07:12:04;90814.81;;;10.08;62.48
10366;BME280;5229;41.820;23.490;2022-12-04T07:14:31;90807.69;;;10.19;62.43
10366;BME280;5229;41.820;23.490;2022-12-04T07:16:59;90809.81;;;10.30;61.61
10366;BME280;5229;41.820;23.490;2022-12-04T07:19:26;90801.13;;;10.40;61.53
10366;BME280;5229;41.820;23.490;2022-12-04T07:21:53;90801.47;;;10.52;61.29
10366;BME280;5229;41.820;23.490;2022-12-04T07:24:19;90803.25;;;10.70;61.45
10366;BME280;5229;41.820;23.490;2022-12-04T07:26:46;90803.22;;;10.88;61.45
10366;BME280;5229;41.820;23.490;2022-12-04T07:29:13;90802.84;;;11.08;60.11
10366;BME280;5229;41.820;23.490;2022-12-04T07:31:40;90810.00;;;11.30;61.03
10366;BME280;5229;41.820;23.490;2022-12-04T07:34:10;90812.53;;;11.48;60.25
10366;BME280;5229;41.820;23.490;2022-12-04T07:36:37;90806.00;;;11.64;59.33
10366;BME280;5229;41.820;23.490;2022-12-04T07:39:04;90814.84;;;11.77;58.87
10366;BME280;5229;41.820;23.490;2022-12-04T07:41:31;90815.22;;;11.84;58.25
10366;BME280;5229;41.820;23.490;2022-12-04T07:43:58;90815.44;;;11.88;57.98
10366;BME280;5229;41.820;23.490;2022-12-04T07:46:26;90819.25;;;11.90;58.11
10366;BME280;5229;41.820;23.490;2022-12-04T07:48:54;90817.72;;;11.89;57.76
10366;BME280;5229;41.820;23.490;2022-12-04T07:51:24;90822.81;;;11.94;57.66
10366;BME280;5229;41.820;23.490;2022-12-04T07:53:52;90827.72;;;11.96;57.53
10366;BME280;5229;41.820;23.490;2022-12-04T07:56:19;90815.03;;;11.94;57.61
10366;BME280;5229;41.820;23.490;2022-12-04T07:58:46;90822.53;;;11.96;57.41
10366;BME280;5229;41.820;23.490;2022-12-04T08:01:16;90819.25;;;12.04;57.38
10366;BME280;5229;41.820;23.490;2022-12-04T08:03:45;90815.38;;;12.15;57.24
10366;BME280;5229;41.820;23.490;2022-12-04T08:06:12;90816.09;;;12.29;57.67
10366;BME280;5229;41.820;23.490;2022-12-04T08:08:41;90825.53;;;12.38;56.53
10366;BME280;5229;41.820;23.490;2022-12-04T08:11:10;90817.78;;;12.47;56.58
10366;BME280;5229;41.820;23.490;2022-12-04T08:13:37;90813.31;;;12.61;56.66
10366;BME280;5229;41.820;23.490;2022-12-04T08:16:05;90815.22;;;12.69;56.80
10366;BME280;5229;41.820;23.490;2022-12-04T08:18:33;90815.56;;;12.76;56.19
10366;BME280;5229;41.820;23.490;2022-12-04T08:21:04;90823.78;;;12.91;55.33
10366;BME280;5229;41.820;23.490;2022-12-04T08:23:31;90821.25;;;13.00;55.67
10366;BME280;5229;41.820;23.490;2022-12-04T08:26:00;90822.81;;;13.01;55.06
10366;BME280;5229;41.820;23.490;2022-12-04T08:28:27;90821.34;;;12.95;55.42
10366;BME280;5229;41.820;23.490;2022-12-04T08:30:54;90823.75;;;12.83;55.27
10366;BME280;5229;41.820;23.490;2022-12-04T08:33:21;90827.28;;;12.87;55.53
10366;BME280;5229;41.820;23.490;2022-12-04T08:35:48;90822.50;;;13.02;55.75
10366;BME280;5229;41.820;23.490;2022-12-04T08:38:15;90821.84;;;13.19;55.31
10366;BME280;5229;41.820;23.490;2022-12-04T08:40:42;90809.25;;;13.43;55.23
10366;BME280;5229;41.820;23.490;2022-12-04T08:43:10;90814.81;;;13.97;53.96
10366;BME280;5229;41.820;23.490;2022-12-04T08:45:37;90815.06;;;14.69;52.84
10366;BME280;5229;41.820;23.490;2022-12-04T08:48:04;90828.69;;;15.26;51.91
10366;BME280;5229;41.820;23.490;2022-12-04T08:50:31;90822.28;;;15.78;50.04
10366;BME280;5229;41.820;23.490;2022-12-04T08:52:58;90822.47;;;16.31;48.86
10366;BME280;5229;41.820;23.490;2022-12-04T08:55:25;90819.34;;;17.19;47.47
10366;BME280;5229;41.820;23.490;2022-12-04T08:57:52;90816.38;;;17.41;46.42
10366;BME280;5229;41.820;23.490;2022-12-04T09:00:20;90816.72;;;17.19;46.48
10366;BME280;5229;41.820;23.490;2022-12-04T09:02:50;90816.59;;;16.83;46.63
10366;BME280;5229;41.820;23.490;2022-12-04T09:05:17;90817.44;;;16.46;47.23
10366;BME280;5229;41.820;23.490;2022-12-04T09:07:43;90824.72;;;16.12;48.02
10366;BME280;5229;41.820;23.490;2022-12-04T09:10:11;90816.06;;;15.82;48.47
10366;BME280;5229;41.820;23.490;2022-12-04T09:12:38;90808.81;;;15.50;48.68
10366;BME280;5229;41.820;23.490;2022-12-04T09:15:06;90805.97;;;15.18;48.97
10366;BME280;5229;41.820;23.490;2022-12-04T09:17:35;90799.56;;;14.90;49.35
10366;BME280;5229;41.820;23.490;2022-12-04T09:20:02;90792.03;;;14.71;49.68
10366;BME280;5229;41.820;23.490;2022-12-04T09:22:29;90792.94;;;14.58;49.34
10366;BME280;5229;41.820;23.490;2022-12-04T09:24:56;90798.47;;;14.48;49.85
10366;BME280;5229;41.820;23.490;2022-12-04T09:27:23;90804.16;;;14.41;49.59
10366;BME280;5229;41.820;23.490;2022-12-04T09:29:50;90812.16;;;14.36;49.85
10366;BME280;5229;41.820;23.490;2022-12-04T09:32:17;90801.09;;;14.31;49.79
10366;BME280;5229;41.820;23.490;2022-12-04T09:34:45;90790.19;;;14.46;49.43
10366;BME280;5229;41.820;23.490;2022-12-04T09:37:12;90794.66;;;14.62;49.06
10366;BME280;5229;41.820;23.490;2022-12-04T09:39:40;90791.13;;;14.67;49.32
10366;BME280;5229;41.820;23.490;2022-12-04T09:42:30;90775.91;;;14.60;48.93
10366;BME280;5229;41.820;23.490;2022-12-04T09:45:03;90786.81;;;14.54;49.26
10366;BME280;5229;41.820;23.490;2022-12-04T09:47:36;90773.16;;;14.57;49.18
10366;BME280;5229;41.820;23.490;2022-12-04T09:50:11;90770.53;;;14.57;49.24
10366;BME280;5229;41.820;23.490;2022-12-04T09:52:49;90761.50;;;14.63;48.86
10366;BME280;5229;41.820;23.490;2022-12-04T09:55:23;90757.63;;;14.86;48.98
10366;BME280;5229;41.820;23.490;2022-12-04T09:57:53;90755.84;;;15.24;48.75
10366;BME280;5229;41.820;23.490;2022-12-04T10:00:21;90760.81;;;15.92;47.43
10366;BME280;5229;41.820;23.490;2022-12-04T10:02:50;90748.22;;;16.76;46.14
10366;BME280;5229;41.820;23.490;2022-12-04T10:05:27;90746.28;;;17.87;44.33
10366;BME280;5229;41.820;23.490;2022-12-04T10:08:03;90750.13;;;19.04;42.86
10366;BME280;5229;41.820;23.490;2022-12-04T10:10:37;90742.00;;;20.14;41.02
10366;BME280;5229;41.820;23.490;2022-12-04T10:13:16;90741.28;;;20.87;39.78
10366;BME280;5229;41.820;23.490;2022-12-04T10:15:51;90736.66;;;21.60;38.67
10366;BME280;5229;41.820;23.490;2022-12-04T10:18:30;90743.31;;;22.18;37.81
10366;BME280;5229;41.820;23.490;2022-12-04T10:21:24;90737.38;;;22.76;36.89
10366;BME280;5229;41.820;23.490;2022-12-04T10:24:04;90723.56;;;22.93;36.56
10366;BME280;5229;41.820;23.490;2022-12-04T10:26:39;90721.53;;;22.80;36.67
10366;BME280;5229;41.820;23.490;2022-12-04T10:29:12;90717.47;;;22.08;37.06
10366;BME280;5229;41.820;23.490;2022-12-04T10:31:43;90716.94;;;21.12;38.14
10366;BME280;5229;41.820;23.490;2022-12-04T10:34:15;90717.44;;;20.26;38.70
10366;BME280;5229;41.820;23.490;2022-12-04T10:36:49;90714.47;;;19.50;39.36
10366;BME280;5229;41.820;23.490;2022-12-04T10:39:20;90708.88;;;18.93;40.20
10366;BME280;5229;41.820;23.490;2022-12-04T10:41:51;90698.50;;;18.57;40.60
10366;BME280;5229;41.820;23.490;2022-12-04T10:44:21;90704.47;;;18.18;41.29
10366;BME280;5229;41.820;23.490;2022-12-04T10:46:49;90706.59;;;17.88;41.17
10366;BME280;5229;41.820;23.490;2022-12-04T10:49:21;90703.53;;;17.50;41.92
10366;BME280;5229;41.820;23.490;2022-12-04T10:51:52;90697.91;;;17.15;41.99
10366;BME280;5229;41.820;23.490;2022-12-04T10:54:21;90689.31;;;16.82;42.64
10366;BME280;5229;41.820;23.490;2022-12-04T10:56:53;90691.16;;;16.49;42.76
10366;BME280;5229;41.820;23.490;2022-12-04T10:59:20;90689.78;;;16.23;42.88
10366;BME280;5229;41.820;23.490;2022-12-04T11:01:48;90692.22;;;16.07;43.42
10366;BME280;5229;41.820;23.490;2022-12-04T11:04:22;90685.84;;;15.96;43.68
10366;BME280;5229;41.820;23.490;2022-12-04T11:07:00;90685.31;;;15.82;43.87
10366;BME280;5229;41.820;23.490;2022-12-04T11:09:28;90683.25;;;15.67;44.00
10366;BME280;5229;41.820;23.490;2022-12-04T11:12:05;90688.56;;;15.50;44.58
10366;BME280;5229;41.820;23.490;2022-12-04T11:14:32;90686.47;;;15.35;45.17
10366;BME280;5229;41.820;23.490;2022-12-04T11:17:01;90684.06;;;15.22;45.73
10366;BME280;5229;41.820;23.490;2022-12-04T11:19:31;90679.94;;;15.12;45.36
10366;BME280;5229;41.820;23.490;2022-12-04T11:22:04;90680.31;;;15.02;45.44
10366;BME280;5229;41.820;23.490;2022-12-04T11:24:36;90677.13;;;14.88;45.58
10366;BME280;5229;41.820;23.490;2022-12-04T11:27:05;90683.28;;;14.75;46.03
10366;BME280;5229;41.820;23.490;2022-12-04T11:29:35;90684.25;;;14.62;45.87
10366;BME280;5229;41.820;23.490;2022-12-04T11:32:04;90685.66;;;14.51;45.56
10366;BME280;5229;41.820;23.490;2022-12-04T11:34:34;90675.69;;;14.44;46.08
10366;BME280;5229;41.820;23.490;2022-12-04T11:37:03;90678.00;;;14.37;45.51
10366;BME280;5229;41.820;23.490;2022-12-04T11:39:34;90672.78;;;14.29;45.40
10366;BME280;5229;41.820;23.490;2022-12-04T11:42:04;90669.88;;;14.22;45.74
10366;BME280;5229;41.820;23.490;2022-12-04T11:44:34;90678.88;;;14.16;45.36
10366;BME280;5229;41.820;23.490;2022-12-04T11:47:03;90678.44;;;14.05;45.80
10366;BME280;5229;41.820;23.490;2022-12-04T11:49:31;90679.53;;;13.96;45.82
10366;BME280;5229;41.820;23.490;2022-12-04T11:52:10;90686.13;;;13.85;46.10
10366;BME280;5229;41.820;23.490;2022-12-04T11:54:47;90688.72;;;13.76;46.57
10366;BME280;5229;41.820;23.490;2022-12-04T11:57:23;90686.22;;;13.63;47.11
10366;BME280;5229;41.820;23.490;2022-12-04T12:00:10;90688.97;;;13.49;47.28
10366;BME280;5229;41.820;23.490;2022-12-04T12:02:49;90688.34;;;13.44;47.44
10366;BME280;5229;41.820;23.490;2022-12-04T12:05:48;90688.00;;;13.37;48.00
10366;BME280;5229;41.820;23.490;2022-12-04T12:08:29;90689.50;;;13.29;48.06
10366;BME280;5229;41.820;23.490;2022-12-04T12:11:04;90687.94;;;13.20;48.01
10366;BME280;5229;41.820;23.490;2022-12-04T12:13:40;90685.31;;;13.11;48.83
10366;BME280;5229;41.820;23.490;2022-12-04T12:16:15;90687.00;;;13.07;48.58
10366;BME280;5229;41.820;23.490;2022-12-04T12:19:03;90688.19;;;13.01;48.94
10366;BME280;5229;41.820;23.490;2022-12-04T12:21:43;90687.44;;;13.01;49.04
10366;BME280;5229;41.820;23.490;2022-12-04T12:24:24;90690.91;;;12.96;49.85
10366;BME280;5229;41.820;23.490;2022-12-04T12:26:59;90686.47;;;12.97;49.84
10366;BME280;5229;41.820;23.490;2022-12-04T12:29:43;90682.91;;;12.93;49.51
10366;BME280;5229;41.820;23.490;2022-12-04T12:32:23;90685.22;;;12.94;49.90
10366;BME280;5229;41.820;23.490;2022-12-04T12:34:55;90683.09;;;12.96;49.42
10366;BME280;5229;41.820;23.490;2022-12-04T12:37:24;90672.97;;;12.95;49.42
10366;BME280;5229;41.820;23.490;2022-12-04T12:40:00;90677.41;;;12.94;49.78
10366;BME280;5229;41.820;23.490;2022-12-04T12:42:32;90677.09;;;12.96;49.49
10366;BME280;5229;41.820;23.490;2022-12-04T12:45:03;90674.97;;;12.98;49.75
10366;BME280;5229;41.820;23.490;2022-12-04T12:47:38;90678.41;;;12.98;50.00
10366;BME280;5229;41.820;23.490;2022-12-04T12:50:13;90676.72;;;13.02;49.66
10366;BME280;5229;41.820;23.490;2022-12-04T12:52:46;90674.88;;;13.03;49.61
10366;BME280;5229;41.820;23.490;2022-12-04T12:55:23;90661.41;;;13.01;49.87
10366;BME280;5229;41.820;23.490;2022-12-04T12:57:59;90671.81;;;13.01;50.41
10366;BME280;5229;41.820;23.490;2022-12-04T13:00:29;90663.69;;;13.02;49.92
10366;BME280;5229;41.820;23.490;2022-12-04T13:03:01;90676.53;;;12.99;49.74
10366;BME280;5229;41.820;23.490;2022-12-04T13:05:33;90669.88;;;12.93;50.18
10366;BME280;5229;41.820;23.490;2022-12-04T13:08:09;90664.22;;;12.91;49.86
10366;BME280;5229;41.820;23.490;2022-12-04T13:10:45;90670.81;;;12.88;50.33
10366;BME280;5229;41.820;23.490;2022-12-04T13:13:18;90661.75;;;12.86;49.99
10366;BME280;5229;41.820;23.490;2022-12-04T13:15:50;90657.31;;;12.86;50.07
10366;BME280;5229;41.820;23.490;2022-12-04T13:18:23;90654.56;;;12.83;49.91
10366;BME280;5229;41.820;23.490;2022-12-04T13:20:53;90657.75;;;12.80;50.62
10366;BME280;5229;41.820;23.490;2022-12-04T13:23:33;90657.47;;;12.81;50.05
10366;BME280;5229;41.820;23.490;2022-12-04T13:26:12;90659.28;;;12.81;50.59